sensor_id;sensor_type;location;lat;lon;timestamp;pressure;altitude;pressure_sealevel;temperature;humidity
46111;BME280;31849;55.992;37.252;2023-02-10T00:04:27;100079.91;;;-0.57;53.75
46111;BME280;31849;55.992;37.252;2023-02-10T00:09:31;100071.44;;;-0.39;53.60
46111;BME280;31849;55.992;37.252;2023-02-10T00:14:34;100058.81;;;-0.36;53.40
46111;BME280;31849;55.992;37.252;2023-02-10T00:19:39;100043.16;;;-0.42;53.32
46111;BME280;31849;55.992;37.252;2023-02-10T00:24:43;100047.50;;;-0.41;52.98
46111;BME280;31849;55.992;37.252;2023-02-10T00:29:46;100032.94;;;-0.42;53.08
46111;BME280;31849;55.992;37.252;2023-02-10T00:34:52;100032.34;;;-0.55;53.54
46111;BME280;31849;55.992;37.252;2023-02-10T00:39:56;100023.84;;;-0.54;53.33
46111;BME280;31849;55.992;37.252;2023-02-10T00:45:01;100007.19;;;-0.63;53.65
46111;BME280;31849;55.992;37.252;2023-02-10T00:50:07;100014.22;;;-0.92;53.73
46111;BME280;31849;55.992;37.252;2023-02-10T00:55:10;100002.66;;;-0.85;53.62
46111;BME280;31849;55.992;37.252;2023-02-10T01:00:14;99987.91;;;-0.91;53.49
46111;BME280;31849;55.992;37.252;2023-02-10T01:05:19;99973.97;;;-0.98;53.75
46111;BME280;31849;55.992;37.252;2023-02-10T01:10:23;99987.25;;;-0.87;53.64
46111;BME280;31849;55.992;37.252;2023-02-10T01:15:26;99967.88;;;-0.83;53.59
46111;BME280;31849;55.992;37.252;2023-02-10T01:20:31;99954.56;;;-0.94;53.68
46111;BME280;31849;55.992;37.252;2023-02-10T01:25:35;99954.25;;;-1.00;53.86
46111;BME280;31849;55.992;37.252;2023-02-10T01:30:38;99938.28;;;-0.96;53.73
46111;BME280;31849;55.992;37.252;2023-02-10T01:35:43;99928.53;;;-0.87;53.57
46111;BME280;31849;55.992;37.252;2023-02-10T01:40:47;99921.53;;;-0.91;53.90
46111;BME280;31849;55.992;37.252;2023-02-10T01:45:51;99918.41;;;-0.85;53.65
46111;BME280;31849;55.992;37.252;2023-02-10T01:50:59;99905.19;;;-0.95;53.84
46111;BME280;31849;55.992;37.252;2023-02-10T01:56:05;99907.69;;;-1.13;54.14
46111;BME280;31849;55.992;37.252;2023-02-10T02:01:08;99889.06;;;-0.94;54.01
46111;BME280;31849;55.992;37.252;2023-02-10T02:06:13;99888.22;;;-1.11;54.10
46111;BME280;31849;55.992;37.252;2023-02-10T02:11:18;99881.91;;;-1.01;54.14
46111;BME280;31849;55.992;37.252;2023-02-10T02:16:31;99877.53;;;-1.03;54.43
46111;BME280;31849;55.992;37.252;2023-02-10T02:27:47;99851.19;;;-1.19;54.52
46111;BME280;31849;55.992;37.252;2023-02-10T02:33:00;99842.53;;;-1.22;54.56
46111;BME280;31849;55.992;37.252;2023-02-10T02:38:05;99827.66;;;-1.48;55.20
46111;BME280;31849;55.992;37.252;2023-02-10T02:43:08;99819.56;;;-1.22;54.57
46111;BME280;31849;55.992;37.252;2023-02-10T02:48:23;99807.38;;;-1.28;54.97
46111;BME280;31849;55.992;37.252;2023-02-10T02:53:33;99793.38;;;-1.36;55.33
46111;BME280;31849;55.992;37.252;2023-02-10T02:58:46;99782.63;;;-1.13;54.78
46111;BME280;31849;55.992;37.252;2023-02-10T03:03:54;99765.28;;;-1.20;54.99
46111;BME280;31849;55.992;37.252;2023-02-10T03:08:58;99761.31;;;-1.31;55.32
46111;BME280;31849;55.992;37.252;2023-02-10T03:14:02;99755.78;;;-1.57;56.01
46111;BME280;31849;55.992;37.252;2023-02-10T03:19:07;99743.25;;;-1.52;55.89
46111;BME280;31849;55.992;37.252;2023-02-10T03:24:10;99730.97;;;-1.43;56.20
46111;BME280;31849;55.992;37.252;2023-02-10T03:29:15;99724.16;;;-1.43;55.91
46111;BME280;31849;55.992;37.252;2023-02-10T03:34:21;99717.81;;;-1.51;56.18
46111;BME280;31849;55.992;37.252;2023-02-10T03:39:24;99696.75;;;-1.65;56.35
46111;BME280;31849;55.992;37.252;2023-02-10T03:44:28;99697.25;;;-1.72;56.34
46111;BME280;31849;55.992;37.252;2023-02-10T03:49:33;99689.53;;;-1.90;56.85
46111;BME280;31849;55.992;37.252;2023-02-10T03:54:36;99677.91;;;-2.01;57.39
46111;BME280;31849;55.992;37.252;2023-02-10T03:59:39;99662.09;;;-2.12;57.25
46111;BME280;31849;55.992;37.252;2023-02-10T04:04:44;99660.66;;;-2.40;57.99
46111;BME280;31849;55.992;37.252;2023-02-10T04:09:47;99657.47;;;-2.36;57.70
46111;BME280;31849;55.992;37.252;2023-02-10T04:14:51;99648.31;;;-2.32;57.40
46111;BME280;31849;55.992;37.252;2023-02-10T04:19:55;99655.00;;;-2.34;57.82
46111;BME280;31849;55.992;37.252;2023-02-10T04:24:59;99652.84;;;-2.43;58.25
46111;BME280;31849;55.992;37.252;2023-02-10T04:30:04;99640.59;;;-2.34;58.03
46111;BME280;31849;55.992;37.252;2023-02-10T04:35:09;99630.22;;;-2.20;57.79
46111;BME280;31849;55.992;37.252;2023-02-10T04:40:13;99629.69;;;-2.31;57.64
46111;BME280;31849;55.992;37.252;2023-02-10T04:45:16;99615.66;;;-2.39;58.11
46111;BME280;31849;55.992;37.252;2023-02-10T04:50:21;99635.66;;;-2.31;58.46
46111;BME280;31849;55.992;37.252;2023-02-10T04:55:25;99634.53;;;-2.19;57.68
46111;BME280;31849;55.992;37.252;2023-02-10T05:00:28;99635.00;;;-2.10;57.87
46111;BME280;31849;55.992;37.252;2023-02-10T05:05:33;99621.25;;;-2.30;57.98
46111;BME280;31849;55.992;37.252;2023-02-10T05:10:37;99617.34;;;-2.23;58.06
46111;BME280;31849;55.992;37.252;2023-02-10T05:15:41;99601.84;;;-2.44;58.12
46111;BME280;31849;55.992;37.252;2023-02-10T05:20:46;99599.84;;;-2.67;59.09
46111;BME280;31849;55.992;37.252;2023-02-10T05:25:49;99582.19;;;-2.63;59.03
46111;BME280;31849;55.992;37.252;2023-02-10T05:30:53;99585.19;;;-2.54;58.62
46111;BME280;31849;55.992;37.252;2023-02-10T05:35:58;99589.03;;;-2.46;58.52
46111;BME280;31849;55.992;37.252;2023-02-10T05:41:01;99604.69;;;-2.55;58.70
46111;BME280;31849;55.992;37.252;2023-02-10T05:46:05;99582.00;;;-2.34;58.29
46111;BME280;31849;55.992;37.252;2023-02-10T05:51:10;99578.03;;;-2.28;57.97
46111;BME280;31849;55.992;37.252;2023-02-10T05:56:14;99567.44;;;-2.36;58.64
46111;BME280;31849;55.992;37.252;2023-02-10T06:01:17;99521.06;;;-2.47;58.57
46111;BME280;31849;55.992;37.252;2023-02-10T06:06:23;99523.75;;;-2.44;57.59
46111;BME280;31849;55.992;37.252;2023-02-10T06:11:26;99521.25;;;-1.55;56.72
46111;BME280;31849;55.992;37.252;2023-02-10T06:16:30;99515.84;;;-1.44;56.21
46111;BME280;31849;55.992;37.252;2023-02-10T06:21:35;99520.53;;;-1.15;55.95
46111;BME280;31849;55.992;37.252;2023-02-10T06:26:38;99497.34;;;-0.61;54.95
46111;BME280;31849;55.992;37.252;2023-02-10T06:31:42;99478.84;;;1.71;50.63
46111;BME280;31849;55.992;37.252;2023-02-10T06:36:47;99462.50;;;4.50;45.23
46111;BME280;31849;55.992;37.252;2023-02-10T06:41:50;99452.53;;;6.03;39.76
46111;BME280;31849;55.992;37.252;2023-02-10T06:46:54;99428.56;;;5.59;42.21
46111;BME280;31849;55.992;37.252;2023-02-10T06:52:02;99434.31;;;4.97;42.64
46111;BME280;31849;55.992;37.252;2023-02-10T06:57:18;99419.81;;;5.02;43.76
46111;BME280;31849;55.992;37.252;2023-02-10T07:02:21;99424.66;;;4.06;43.29
46111;BME280;31849;55.992;37.252;2023-02-10T07:07:26;99400.63;;;3.01;44.90
46111;BME280;31849;55.992;37.252;2023-02-10T07:12:30;99400.47;;;7.02;38.81
46111;BME280;31849;55.992;37.252;2023-02-10T07:17:33;99372.78;;;11.47;32.06
46111;BME280;31849;55.992;37.252;2023-02-10T07:22:39;99377.13;;;12.41;30.75
46111;BME280;31849;55.992;37.252;2023-02-10T07:27:43;99376.88;;;9.53;33.54
46111;BME280;31849;55.992;37.252;2023-02-10T07:32:47;99355.16;;;7.38;36.46
46111;BME280;31849;55.992;37.252;2023-02-10T07:37:51;99345.94;;;6.08;37.48
46111;BME280;31849;55.992;37.252;2023-02-10T07:42:55;99342.19;;;7.35;34.59
46111;BME280;31849;55.992;37.252;2023-02-10T07:47:58;99334.13;;;10.88;31.80
46111;BME280;31849;55.992;37.252;2023-02-10T07:53:04;99343.34;;;14.11;26.83
46111;BME280;31849;55.992;37.252;2023-02-10T07:58:07;99327.22;;;13.85;27.33
46111;BME280;31849;55.992;37.252;2023-02-10T08:03:13;99317.19;;;17.51;23.50
46111;BME280;31849;55.992;37.252;2023-02-10T08:08:19;99300.47;;;18.29;22.27
46111;BME280;31849;55.992;37.252;2023-02-10T08:13:22;99297.63;;;15.82;23.85
46111;BME280;31849;55.992;37.252;2023-02-10T08:18:26;99310.50;;;12.17;26.80
46111;BME280;31849;55.992;37.252;2023-02-10T08:23:31;99284.31;;;9.44;29.64
46111;BME280;31849;55.992;37.252;2023-02-10T08:28:35;99266.66;;;7.90;31.88
46111;BME280;31849;55.992;37.252;2023-02-10T08:33:39;99259.66;;;6.63;32.77
46111;BME280;31849;55.992;37.252;2023-02-10T08:38:50;99247.97;;;4.49;35.24
46111;BME280;31849;55.992;37.252;2023-02-10T08:43:54;99241.13;;;4.05;36.73
46111;BME280;31849;55.992;37.252;2023-02-10T08:48:58;99230.28;;;3.79;36.65
46111;BME280;31849;55.992;37.252;2023-02-10T08:54:05;99218.09;;;2.94;38.59
46111;BME280;31849;55.992;37.252;2023-02-10T08:59:09;99215.84;;;2.38;38.99
46111;BME280;31849;55.992;37.252;2023-02-10T09:04:12;99201.69;;;1.60;40.97
46111;BME280;31849;55.992;37.252;2023-02-10T09:09:20;99204.84;;;1.51;41.38
46111;BME280;31849;55.992;37.252;2023-02-10T09:14:26;99196.97;;;1.16;41.88
46111;BME280;31849;55.992;37.252;2023-02-10T09:19:30;99193.94;;;1.28;41.00
46111;BME280;31849;55.992;37.252;2023-02-10T09:24:35;99214.38;;;1.27;40.91
46111;BME280;31849;55.992;37.252;2023-02-10T09:29:38;99197.25;;;0.97;41.73
46111;BME280;31849;55.992;37.252;2023-02-10T09:34:42;99180.75;;;0.88;41.64
46111;BME280;31849;55.992;37.252;2023-02-10T09:39:48;99185.78;;;0.85;41.76
46111;BME280;31849;55.992;37.252;2023-02-10T09:44:56;99177.72;;;1.00;41.38
46111;BME280;31849;55.992;37.252;2023-02-10T09:50:22;99162.16;;;0.94;41.70
46111;BME280;31849;55.992;37.252;2023-02-10T09:55:33;99169.47;;;1.39;41.18
46111;BME280;31849;55.992;37.252;2023-02-10T10:00:40;99143.50;;;1.56;41.23
46111;BME280;31849;55.992;37.252;2023-02-10T10:05:50;99116.91;;;1.52;41.24
46111;BME280;31849;55.992;37.252;2023-02-10T10:11:05;99132.28;;;1.52;40.92
46111;BME280;31849;55.992;37.252;2023-02-10T10:16:19;99115.03;;;1.16;40.25
46111;BME280;31849;55.992;37.252;2023-02-10T10:21:28;99117.22;;;1.63;39.97
46111;BME280;31849;55.992;37.252;2023-02-10T10:26:45;99099.47;;;1.39;40.69
46111;BME280;31849;55.992;37.252;2023-02-10T10:31:57;99096.09;;;1.72;40.39
46111;BME280;31849;55.992;37.252;2023-02-10T10:37:14;99084.88;;;1.67;40.20
46111;BME280;31849;55.992;37.252;2023-02-10T10:42:26;99061.19;;;1.75;39.96
46111;BME280;31849;55.992;37.252;2023-02-10T10:47:38;99065.72;;;1.54;39.84
46111;BME280;31849;55.992;37.252;2023-02-10T10:52:44;99068.63;;;1.36;39.98
46111;BME280;31849;55.992;37.252;2023-02-10T10:57:55;99045.81;;;1.45;40.18
46111;BME280;31849;55.992;37.252;2023-02-10T11:03:01;99042.50;;;1.48;39.58
46111;BME280;31849;55.992;37.252;2023-02-10T11:08:06;99034.31;;;1.29;39.66
46111;BME280;31849;55.992;37.252;2023-02-10T11:13:19;99025.75;;;1.94;39.01
46111;BME280;31849;55.992;37.252;2023-02-10T11:18:23;99026.88;;;2.05;39.18
46111;BME280;31849;55.992;37.252;2023-02-10T11:23:27;99015.00;;;1.74;39.66
46111;BME280;31849;55.992;37.252;2023-02-10T11:28:33;99009.75;;;1.37;39.48
46111;BME280;31849;55.992;37.252;2023-02-10T11:33:38;98995.97;;;1.32;39.94
46111;BME280;31849;55.992;37.252;2023-02-10T11:38:42;98996.78;;;1.31;39.74
46111;BME280;31849;55.992;37.252;2023-02-10T11:43:48;98983.44;;;1.43;39.16
46111;BME280;31849;55.992;37.252;2023-02-10T11:48:53;98989.34;;;1.40;39.56
46111;BME280;31849;55.992;37.252;2023-02-10T11:53:58;98991.16;;;1.45;39.84
46111;BME280;31849;55.992;37.252;2023-02-10T11:59:07;98986.69;;;1.69;39.76
46111;BME280;31849;55.992;37.252;2023-02-10T12:10:04;98948.78;;;1.56;39.74
46111;BME280;31849;55.992;37.252;2023-02-10T12:15:25;98948.16;;;1.33;40.13
46111;BME280;31849;55.992;37.252;2023-02-10T12:20:44;98954.47;;;0.82;39.88
46111;BME280;31849;55.992;37.252;2023-02-10T12:26:00;98937.66;;;0.92;41.09
46111;BME280;31849;55.992;37.252;2023-02-10T12:31:16;98950.44;;;0.60;41.17
46111;BME280;31849;55.992;37.252;2023-02-10T12:36:27;98928.00;;;0.51;41.71
46111;BME280;31849;55.992;37.252;2023-02-10T12:41:42;98929.38;;;0.40;41.53
46111;BME280;31849;55.992;37.252;2023-02-10T12:46:56;98923.81;;;0.55;41.96
46111;BME280;31849;55.992;37.252;2023-02-10T12:52:06;98936.44;;;0.48;42.44
46111;BME280;31849;55.992;37.252;2023-02-10T12:57:18;98916.72;;;0.44;42.55
46111;BME280;31849;55.992;37.252;2023-02-10T13:02:27;98895.22;;;0.38;43.10
46111;BME280;31849;55.992;37.252;2023-02-10T13:07:40;98909.88;;;0.43;43.46
46111;BME280;31849;55.992;37.252;2023-02-10T13:12:48;98912.63;;;0.49;42.76
46111;BME280;31849;55.992;37.252;2023-02-10T13:17:53;98909.00;;;0.43;43.22
46111;BME280;31849;55.992;37.252;2023-02-10T13:22:59;98897.56;;;0.60;42.91
46111;BME280;31849;55.992;37.252;2023-02-10T13:28:14;98922.06;;;0.23;43.69
46111;BME280;31849;55.992;37.252;2023-02-10T13:33:26;98911.28;;;0.33;43.35
46111;BME280;31849;55.992;37.252;2023-02-10T13:38:33;98905.44;;;0.09;44.03
46111;BME280;31849;55.992;37.252;2023-02-10T13:43:37;98898.94;;;0.49;43.41
46111;BME280;31849;55.992;37.252;2023-02-10T13:48:51;98905.66;;;0.45;43.40
46111;BME280;31849;55.992;37.252;2023-02-10T13:53:56;98910.66;;;0.41;43.45
46111;BME280;31849;55.992;37.252;2023-02-10T13:59:01;98888.53;;;0.43;43.61
46111;BME280;31849;55.992;37.252;2023-02-10T14:04:26;98911.38;;;0.65;43.43
46111;BME280;31849;55.992;37.252;2023-02-10T14:09:35;98906.06;;;0.59;43.47
46111;BME280;31849;55.992;37.252;2023-02-10T14:14:40;98914.53;;;0.57;43.76
46111;BME280;31849;55.992;37.252;2023-02-10T14:19:46;98927.69;;;0.40;44.24
46111;BME280;31849;55.992;37.252;2023-02-10T14:24:50;98925.44;;;0.51;43.78
46111;BME280;31849;55.992;37.252;2023-02-10T14:30:02;98915.25;;;0.52;44.13
46111;BME280;31849;55.992;37.252;2023-02-10T14:35:17;98917.00;;;0.25;44.49
46111;BME280;31849;55.992;37.252;2023-02-10T14:40:31;98927.50;;;0.34;44.33
46111;BME280;31849;55.992;37.252;2023-02-10T14:45:35;98929.06;;;0.29;44.07
46111;BME280;31849;55.992;37.252;2023-02-10T14:50:44;98919.91;;;0.37;44.76
46111;BME280;31849;55.992;37.252;2023-02-10T14:55:53;98927.75;;;0.72;44.14
46111;BME280;31849;55.992;37.252;2023-02-10T15:01:09;98931.59;;;0.58;44.83
46111;BME280;31849;55.992;37.252;2023-02-10T15:06:17;98942.25;;;0.43;44.76
46111;BME280;31849;55.992;37.252;2023-02-10T15:11:24;98929.44;;;0.43;45.07
46111;BME280;31849;55.992;37.252;2023-02-10T15:16:46;98929.88;;;0.28;45.29
46111;BME280;31849;55.992;37.252;2023-02-10T15:21:52;98939.19;;;0.55;45.22
46111;BME280;31849;55.992;37.252;2023-02-10T15:26:55;98941.22;;;0.36;45.83
46111;BME280;31849;55.992;37.252;2023-02-10T15:32:16;98938.25;;;0.24;46.95
46111;BME280;31849;55.992;37.252;2023-02-10T15:37:24;98938.00;;;0.43;46.67
46111;BME280;31849;55.992;37.252;2023-02-10T15:42:30;98932.38;;;0.55;46.15
46111;BME280;31849;55.992;37.252;2023-02-10T15:47:43;98938.22;;;0.22;47.34
46111;BME280;31849;55.992;37.252;2023-02-10T15:52:49;98938.47;;;0.30;47.26
46111;BME280;31849;55.992;37.252;2023-02-10T15:57:54;98948.22;;;0.14;48.26
46111;BME280;31849;55.992;37.252;2023-02-10T16:02:58;98956.31;;;0.28;48.04
46111;BME280;31849;55.992;37.252;2023-02-10T16:08:06;98960.47;;;0.25;48.73
46111;BME280;31849;55.992;37.252;2023-02-10T16:13:13;98966.00;;;0.11;49.57
46111;BME280;31849;55.992;37.252;2023-02-10T16:18:19;98960.41;;;0.23;49.85
46111;BME280;31849;55.992;37.252;2023-02-10T16:23:24;98965.81;;;0.05;49.92
46111;BME280;31849;55.992;37.252;2023-02-10T16:28:29;98968.81;;;0.19;50.27
46111;BME280;31849;55.992;37.252;2023-02-10T16:33:32;98974.63;;;0.13;50.56
46111;BME280;31849;55.992;37.252;2023-02-10T16:38:38;98979.13;;;0.22;50.60
46111;BME280;31849;55.992;37.252;2023-02-10T16:43:41;98971.50;;;-0.04;51.20
46111;BME280;31849;55.992;37.252;2023-02-10T16:48:45;98979.69;;;-0.14;51.58
46111;BME280;31849;55.992;37.252;2023-02-10T16:53:50;98986.50;;;0.13;51.35
46111;BME280;31849;55.992;37.252;2023-02-10T16:58:56;98990.25;;;-0.03;52.00
46111;BME280;31849;55.992;37.252;2023-02-10T17:04:00;98983.63;;;0.02;51.76
46111;BME280;31849;55.992;37.252;2023-02-10T17:09:05;98981.94;;;0.30;51.70
46111;BME280;31849;55.992;37.252;2023-02-10T17:14:09;98990.38;;;0.27;51.15
46111;BME280;31849;55.992;37.252;2023-02-10T17:19:15;98979.06;;;0.21;51.80
46111;BME280;31849;55.992;37.252;2023-02-10T17:24:20;98979.47;;;0.06;52.54
46111;BME280;31849;55.992;37.252;2023-02-10T17:29:24;98968.53;;;0.10;52.68
46111;BME280;31849;55.992;37.252;2023-02-10T17:34:28;98964.19;;;0.07;52.27
46111;BME280;31849;55.992;37.252;2023-02-10T17:39:38;98963.38;;;0.08;52.41
46111;BME280;31849;55.992;37.252;2023-02-10T17:44:43;98955.03;;;0.14;52.09
46111;BME280;31849;55.992;37.252;2023-02-10T17:49:46;98963.69;;;-0.08;52.92
46111;BME280;31849;55.992;37.252;2023-02-10T17:54:51;98954.72;;;-0.23;52.91
46111;BME280;31849;55.992;37.252;2023-02-10T17:59:54;98965.19;;;-0.41;52.83
46111;BME280;31849;55.992;37.252;2023-02-10T18:04:58;98956.09;;;-0.58;53.27
46111;BME280;31849;55.992;37.252;2023-02-10T18:10:04;98951.38;;;-0.72;54.05
46111;BME280;31849;55.992;37.252;2023-02-10T18:15:09;98971.06;;;-0.43;54.03
46111;BME280;31849;55.992;37.252;2023-02-10T18:20:12;98971.84;;;-0.20;53.31
46111;BME280;31849;55.992;37.252;2023-02-10T18:25:17;98958.78;;;-0.29;53.67
46111;BME280;31849;55.992;37.252;2023-02-10T18:30:21;98945.97;;;-0.55;53.72
46111;BME280;31849;55.992;37.252;2023-02-10T18:35:24;98937.00;;;-0.94;54.35
46111;BME280;31849;55.992;37.252;2023-02-10T18:40:30;98954.56;;;-1.03;54.96
46111;BME280;31849;55.992;37.252;2023-02-10T18:45:34;98950.03;;;-1.10;54.64
46111;BME280;31849;55.992;37.252;2023-02-10T18:50:37;98945.72;;;-1.35;56.09
46111;BME280;31849;55.992;37.252;2023-02-10T18:55:42;98944.50;;;-1.47;56.10
46111;BME280;31849;55.992;37.252;2023-02-10T19:00:47;98944.19;;;-1.32;55.79
46111;BME280;31849;55.992;37.252;2023-02-10T19:05:51;98935.28;;;-0.95;55.28
46111;BME280;31849;55.992;37.252;2023-02-10T19:11:00;98924.41;;;-0.65;54.75
46111;BME280;31849;55.992;37.252;2023-02-10T19:16:04;98930.72;;;-0.54;54.59
46111;BME280;31849;55.992;37.252;2023-02-10T19:21:08;98926.50;;;-0.53;54.79
46111;BME280;31849;55.992;37.252;2023-02-10T19:26:14;98919.00;;;-0.74;54.94
46111;BME280;31849;55.992;37.252;2023-02-10T19:31:17;98922.44;;;-0.46;54.56
46111;BME280;31849;55.992;37.252;2023-02-10T19:36:22;98923.53;;;-0.40;54.17
46111;BME280;31849;55.992;37.252;2023-02-10T19:41:27;98924.66;;;-0.30;54.06
46111;BME280;31849;55.992;37.252;2023-02-10T19:46:30;98916.75;;;-0.12;53.85
46111;BME280;31849;55.992;37.252;2023-02-10T19:51:34;98919.72;;;-0.25;54.09
46111;BME280;31849;55.992;37.252;2023-02-10T19:56:39;98918.22;;;-0.19;53.69
46111;BME280;31849;55.992;37.252;2023-02-10T20:01:42;98904.31;;;-0.27;54.00
46111;BME280;31849;55.992;37.252;2023-02-10T20:06:47;98889.78;;;-0.29;54.18
46111;BME280;31849;55.992;37.252;2023-02-10T20:11:52;98902.38;;;-0.08;53.90
46111;BME280;31849;55.992;37.252;2023-02-10T20:16:55;98898.78;;;0.14;53.75
46111;BME280;31849;55.992;37.252;2023-02-10T20:21:59;98890.59;;;-0.03;54.02
46111;BME280;31849;55.992;37.252;2023-02-10T20:27:04;98888.41;;;0.09;53.86
46111;BME280;31849;55.992;37.252;2023-02-10T20:32:07;98890.38;;;0.18;53.68
46111;BME280;31849;55.992;37.252;2023-02-10T20:37:11;98892.16;;;-0.08;54.26
46111;BME280;31849;55.992;37.252;2023-02-10T20:42:16;98895.19;;;0.09;54.02
46111;BME280;31849;55.992;37.252;2023-02-10T20:47:19;98898.72;;;0.12;54.22
46111;BME280;31849;55.992;37.252;2023-02-10T20:52:22;98894.31;;;0.07;53.93
46111;BME280;31849;55.992;37.252;2023-02-10T20:57:27;98892.09;;;0.19;53.79
46111;BME280;31849;55.992;37.252;2023-02-10T21:02:31;98895.97;;;0.35;54.03
46111;BME280;31849;55.992;37.252;2023-02-10T21:07:34;98888.66;;;0.47;53.87
46111;BME280;31849;55.992;37.252;2023-02-10T21:12:39;98887.16;;;0.25;54.25
46111;BME280;31849;55.992;37.252;2023-02-10T21:17:43;98883.66;;;0.22;53.97
46111;BME280;31849;55.992;37.252;2023-02-10T21:22:48;98888.66;;;0.17;54.04
46111;BME280;31849;55.992;37.252;2023-02-10T21:27:53;98893.44;;;0.06;54.12
46111;BME280;31849;55.992;37.252;2023-02-10T21:32:56;98900.56;;;-0.11;55.14
46111;BME280;31849;55.992;37.252;2023-02-10T21:38:00;98892.22;;;-0.34;55.37
46111;BME280;31849;55.992;37.252;2023-02-10T21:43:05;98901.00;;;-0.24;55.42
46111;BME280;31849;55.992;37.252;2023-02-10T21:48:08;98884.72;;;-0.28;55.56
46111;BME280;31849;55.992;37.252;2023-02-10T21:53:13;98892.44;;;-0.52;55.74
46111;BME280;31849;55.992;37.252;2023-02-10T21:58:18;98896.41;;;-0.62;56.61
46111;BME280;31849;55.992;37.252;2023-02-10T22:03:21;98903.38;;;-0.30;55.47
46111;BME280;31849;55.992;37.252;2023-02-10T22:08:25;98912.06;;;-0.25;55.25
46111;BME280;31849;55.992;37.252;2023-02-10T22:13:31;98904.28;;;-0.28;55.66
46111;BME280;31849;55.992;37.252;2023-02-10T22:18:35;98898.16;;;-0.33;56.06
46111;BME280;31849;55.992;37.252;2023-02-10T22:23:39;98903.03;;;-0.14;55.29
46111;BME280;31849;55.992;37.252;2023-02-10T22:28:44;98891.25;;;-0.10;55.50
46111;BME280;31849;55.992;37.252;2023-02-10T22:33:50;98908.59;;;0.00;54.83
46111;BME280;31849;55.992;37.252;2023-02-10T22:38:54;98928.44;;;0.09;55.33
46111;BME280;31849;55.992;37.252;2023-02-10T22:44:01;98921.97;;;0.20;55.40
46111;BME280;31849;55.992;37.252;2023-02-10T22:49:06;98908.34;;;0.20;55.05
46111;BME280;31849;55.992;37.252;2023-02-10T22:54:12;98915.63;;;0.36;54.84
46111;BME280;31849;55.992;37.252;2023-02-10T22:59:17;98924.53;;;0.20;54.92
46111;BME280;31849;55.992;37.252;2023-02-10T23:04:20;98919.63;;;0.28;54.47
46111;BME280;31849;55.992;37.252;2023-02-10T23:09:23;98916.84;;;0.20;54.35
46111;BME280;31849;55.992;37.252;2023-02-10T23:14:28;98938.00;;;0.14;54.83
46111;BME280;31849;55.992;37.252;2023-02-10T23:19:32;98931.84;;;0.37;54.40
46111;BME280;31849;55.992;37.252;2023-02-10T23:24:35;98930.88;;;0.33;54.60
46111;BME280;31849;55.992;37.252;2023-02-10T23:29:41;98932.19;;;0.20;54.37
46111;BME280;31849;55.992;37.252;2023-02-10T23:34:44;98934.03;;;-0.03;54.68
46111;BME280;31849;55.992;37.252;2023-02-10T23:39:48;98933.66;;;-0.15;55.50
46111;BME280;31849;55.992;37.252;2023-02-10T23:44:53;98934.31;;;-0.21;54.96
46111;BME280;31849;55.992;37.252;2023-02-10T23:49:57;98928.13;;;-0.29;55.13
46111;BME280;31849;55.992;37.252;2023-02-10T23:55:00;98936.72;;;-0.53;55.33
